createdAt,value
2019-05-16T00:00:13.225Z,45.70
2019-05-16T00:02:42.626Z,45.70
2019-05-16T00:05:12.163Z,45.80
2019-05-16T00:07:41.597Z,46.00
2019-05-16T00:10:11.183Z,45.90
2019-05-16T00:12:40.649Z,45.90
2019-05-16T00:15:10.310Z,46.30
2019-05-16T00:17:39.772Z,46.00
2019-05-16T00:20:10.008Z,46.20
2019-05-16T00:22:39.633Z,46.30
2019-05-16T00:25:10.870Z,46.20
2019-05-16T00:27:40.338Z,46.40
2019-05-16T00:30:10.998Z,46.40
2019-05-16T00:32:40.404Z,46.50
2019-05-16T00:35:09.997Z,46.60
2019-05-16T00:37:39.462Z,46.70
2019-05-16T00:40:09.251Z,46.80
2019-05-16T00:42:39.291Z,46.70
2019-05-16T00:45:09.534Z,46.80
2019-05-16T00:47:39.289Z,47.00
2019-05-16T00:50:10.905Z,46.70
2019-05-16T00:52:40.275Z,46.90
2019-05-16T00:55:09.796Z,47.10
2019-05-16T00:57:40.994Z,46.90
2019-05-16T01:00:11.474Z,46.80
2019-05-16T01:02:40.922Z,47.10
2019-05-16T01:05:10.739Z,46.90
2019-05-16T01:07:40.130Z,47.00
2019-05-16T01:10:09.750Z,47.00
2019-05-16T01:12:39.336Z,47.00
2019-05-16T01:15:09.538Z,46.80
2019-05-16T01:17:39.301Z,47.00
2019-05-16T01:20:09.129Z,47.20
2019-05-16T01:22:38.743Z,46.80
2019-05-16T01:25:09.778Z,47.10
2019-05-16T01:27:39.270Z,46.90
2019-05-16T01:30:09.297Z,46.80
2019-05-16T01:32:39.453Z,46.70
2019-05-16T01:35:10.127Z,46.80
2019-05-16T01:37:39.640Z,47.70
2019-05-16T01:40:09.261Z,47.10
2019-05-16T01:42:38.862Z,46.60
2019-05-16T01:45:09.345Z,46.70
2019-05-16T01:47:39.428Z,47.10
2019-05-16T01:50:10.484Z,46.70
2019-05-16T01:52:39.873Z,46.60
2019-05-16T01:55:09.395Z,46.50
2019-05-16T01:57:39.839Z,46.50
2019-05-16T02:00:11.443Z,46.80
2019-05-16T02:02:41.856Z,46.50
2019-05-16T02:05:12.588Z,46.60
2019-05-16T02:07:41.969Z,46.70
2019-05-16T02:10:11.995Z,46.60
2019-05-16T02:12:41.452Z,46.40
2019-05-16T02:15:11.180Z,46.50
2019-05-16T02:17:40.661Z,46.20
2019-05-16T02:20:10.380Z,46.60
2019-05-16T02:22:39.841Z,46.40
2019-05-16T02:25:10.135Z,46.30
2019-05-16T02:27:41.071Z,46.40
2019-05-16T02:30:12.630Z,46.60
2019-05-16T02:32:43.315Z,46.40
2019-05-16T02:35:12.764Z,46.40
2019-05-16T02:37:42.697Z,46.70
2019-05-16T02:40:14.261Z,46.80
2019-05-16T02:42:44.780Z,46.90
2019-05-16T02:45:14.296Z,47.00
2019-05-16T02:47:43.693Z,46.90
2019-05-16T02:50:13.716Z,46.90
2019-05-16T02:52:43.191Z,46.70
2019-05-16T02:55:13.487Z,47.00
2019-05-16T02:57:50.729Z,47.10
2019-05-16T03:00:34.555Z,47.10
2019-05-16T03:03:05.352Z,47.40
2019-05-16T03:05:34.879Z,47.10
2019-05-16T03:08:07.079Z,47.20
2019-05-16T03:10:36.460Z,47.40
2019-05-16T03:13:07.349Z,47.40
2019-05-16T03:15:36.728Z,47.40
2019-05-16T03:18:06.115Z,47.60
2019-05-16T03:20:40.867Z,47.50
2019-05-16T03:23:11.345Z,47.60
2019-05-16T03:25:41.813Z,47.60
2019-05-16T03:28:11.588Z,47.70
2019-05-16T03:30:44.852Z,47.70
2019-05-16T03:33:19.363Z,47.80
2019-05-16T03:35:44.566Z,47.70
2019-05-16T03:38:15.138Z,48.50
2019-05-16T03:40:44.581Z,48.10
2019-05-16T03:43:13.975Z,48.50
2019-05-16T03:45:43.383Z,48.50
2019-05-16T03:48:12.848Z,48.50
2019-05-16T03:51:01.575Z,48.70
2019-05-16T03:53:31.717Z,48.80
2019-05-16T03:56:02.566Z,48.40
2019-05-16T03:58:31.955Z,48.70
2019-05-16T04:01:02.403Z,48.60
2019-05-16T04:03:33.369Z,48.40
2019-05-16T04:06:03.056Z,48.40
2019-05-16T04:08:32.522Z,48.10
2019-05-16T04:11:01.996Z,48.00
2019-05-16T04:13:31.911Z,47.80
2019-05-16T04:16:01.809Z,47.70
2019-05-16T04:18:32.031Z,47.60
2019-05-16T04:21:01.937Z,47.60
2019-05-16T04:23:31.797Z,47.40
2019-05-16T04:26:01.336Z,47.70
2019-05-16T04:28:31.711Z,47.70
2019-05-16T04:31:02.270Z,47.30
2019-05-16T04:33:31.866Z,47.70
2019-05-16T04:36:01.607Z,47.40
2019-05-16T04:38:40.719Z,47.60
2019-05-16T04:41:03.071Z,47.30
2019-05-16T04:43:32.516Z,46.90
2019-05-16T04:46:02.889Z,47.00
2019-05-16T04:48:32.275Z,47.10
2019-05-16T04:51:01.822Z,46.80
2019-05-16T04:53:31.936Z,47.50
2019-05-16T04:56:02.074Z,47.80
2019-05-16T04:58:31.959Z,47.30
2019-05-16T05:01:01.933Z,48.10
2019-05-16T05:03:31.913Z,47.40
2019-05-16T05:06:01.780Z,47.20
2019-05-16T05:08:48.555Z,47.40
2019-05-16T05:11:02.436Z,47.20
2019-05-16T05:13:31.915Z,46.80
2019-05-16T05:16:01.591Z,47.00
2019-05-16T05:18:31.070Z,46.60
2019-05-16T05:21:01.239Z,47.00
2019-05-16T05:23:30.781Z,46.50
2019-05-16T05:26:00.565Z,46.30
2019-05-16T05:28:30.175Z,46.20
2019-05-16T05:30:59.987Z,45.90
2019-05-16T05:33:30.547Z,46.20
2019-05-16T05:36:01.092Z,45.90
2019-05-16T05:38:31.231Z,44.90
2019-05-16T05:41:00.708Z,44.60
2019-05-16T05:43:30.624Z,44.60
2019-05-16T05:46:00.764Z,44.40
2019-05-16T05:48:30.991Z,43.90
2019-05-16T05:51:00.582Z,45.00
2019-05-16T05:53:30.340Z,44.10
2019-05-16T05:56:00.654Z,43.80
2019-05-16T05:58:31.012Z,44.30
2019-05-16T06:01:01.591Z,44.60
2019-05-16T06:03:32.730Z,44.30
2019-05-16T06:06:02.139Z,43.90
2019-05-16T06:08:31.566Z,44.00
2019-05-16T06:11:00.973Z,43.90
2019-05-16T06:13:31.083Z,44.00
2019-05-16T06:16:00.773Z,43.90
2019-05-16T06:18:30.687Z,43.70
2019-05-16T06:21:00.666Z,43.50
2019-05-16T06:23:31.094Z,43.30
2019-05-16T06:26:00.849Z,43.30
2019-05-16T06:28:30.944Z,43.20
2019-05-16T06:31:02.066Z,43.30
2019-05-16T06:33:31.622Z,43.70
2019-05-16T06:36:01.121Z,43.40
2019-05-16T06:38:30.623Z,43.10
2019-05-16T06:41:00.612Z,43.20
2019-05-16T06:43:30.396Z,43.00
2019-05-16T06:46:00.638Z,42.80
2019-05-16T06:48:30.593Z,42.10
2019-05-16T06:51:02.988Z,42.30
2019-05-16T06:53:31.315Z,42.60
2019-05-16T06:56:00.869Z,42.90
2019-05-16T06:58:30.493Z,42.50
2019-05-16T07:01:03.364Z,42.50
2019-05-16T07:03:32.091Z,41.60
2019-05-16T07:06:01.551Z,42.60
2019-05-16T07:08:50.911Z,41.60
2019-05-16T07:11:20.564Z,41.80
2019-05-16T07:13:51.997Z,41.50
2019-05-16T07:16:22.338Z,41.70
2019-05-16T07:18:51.979Z,41.40
2019-05-16T07:21:21.368Z,41.60
2019-05-16T07:23:51.271Z,41.70
2019-05-16T07:26:20.925Z,41.40
2019-05-16T07:28:51.506Z,41.30
2019-05-16T07:31:22.536Z,41.00
2019-05-16T07:33:52.330Z,40.70
2019-05-16T07:36:21.717Z,40.50
2019-05-16T07:38:51.180Z,39.70
2019-05-16T07:41:20.668Z,39.70
2019-05-16T07:43:50.655Z,39.60
2019-05-16T07:46:20.784Z,39.30
2019-05-16T07:48:51.841Z,39.10
2019-05-16T07:51:21.783Z,39.50
2019-05-16T07:53:51.292Z,39.10
2019-05-16T07:56:20.779Z,39.20
2019-05-16T07:58:50.891Z,39.10
2019-05-16T08:01:20.490Z,38.60
2019-05-16T08:03:50.935Z,38.60
2019-05-16T08:06:21.717Z,38.30
2019-05-16T08:08:51.339Z,38.20
2019-05-16T08:11:23.735Z,38.30
2019-05-16T08:13:52.015Z,38.80
2019-05-16T08:16:21.447Z,38.50
2019-05-16T08:18:51.103Z,38.20
2019-05-16T08:21:20.710Z,37.70
2019-05-16T08:23:50.624Z,38.00
2019-05-16T08:26:21.850Z,38.10
2019-05-16T08:28:51.376Z,38.40
2019-05-16T08:31:21.530Z,37.70
2019-05-16T08:33:53.812Z,38.00
2019-05-16T08:36:22.230Z,38.60
2019-05-16T08:38:52.089Z,38.90
2019-05-16T08:41:22.206Z,38.50
2019-05-16T08:43:53.690Z,38.40
2019-05-16T08:46:23.474Z,38.60
2019-05-16T08:48:54.143Z,38.70
2019-05-16T08:51:23.811Z,38.10
2019-05-16T08:53:53.194Z,39.10
2019-05-16T08:56:22.728Z,38.90
2019-05-16T08:58:53.990Z,39.20
2019-05-16T09:01:24.353Z,39.80
2019-05-16T09:03:53.726Z,39.20
2019-05-16T09:06:23.563Z,38.90
2019-05-16T09:08:53.191Z,38.50
2019-05-16T09:11:35.660Z,38.30
2019-05-16T09:13:53.664Z,38.90
2019-05-16T09:16:23.043Z,38.80
2019-05-16T09:18:52.464Z,38.40
2019-05-16T09:21:21.974Z,38.40
2019-05-16T09:23:51.442Z,38.20
2019-05-16T09:26:20.844Z,38.00
2019-05-16T09:28:50.232Z,37.90
2019-05-16T09:31:19.608Z,38.10
2019-05-16T09:33:49.078Z,37.50
2019-05-16T09:36:18.452Z,38.00
2019-05-16T09:38:48.627Z,37.50
2019-05-16T09:41:18.324Z,36.60
2019-05-16T09:43:48.954Z,37.00
2019-05-16T09:46:31.943Z,36.80
2019-05-16T09:49:15.841Z,37.90
2019-05-16T09:51:32.404Z,38.00
2019-05-16T09:54:01.811Z,37.30
2019-05-16T09:56:31.252Z,37.30
2019-05-16T09:59:00.878Z,37.00
2019-05-16T10:01:30.285Z,35.70
2019-05-16T10:03:59.838Z,36.30
2019-05-16T10:06:29.274Z,34.70
2019-05-16T10:08:58.755Z,34.80
2019-05-16T10:11:31.048Z,34.90
2019-05-16T10:14:13.583Z,35.50
2019-05-16T10:16:42.968Z,36.30
2019-05-16T10:19:12.336Z,36.60
2019-05-16T10:21:41.742Z,37.10
2019-05-16T10:24:11.341Z,36.80
2019-05-16T10:26:53.192Z,36.80
2019-05-16T10:29:19.380Z,36.70
2019-05-16T10:31:53.059Z,37.30
2019-05-16T10:34:19.933Z,37.00
2019-05-16T10:37:04.246Z,36.10
2019-05-16T10:39:33.775Z,36.20
2019-05-16T10:42:06.664Z,37.00
2019-05-16T10:44:38.428Z,36.40
2019-05-16T10:47:07.596Z,37.00
2019-05-16T10:49:40.909Z,36.80
2019-05-16T10:52:08.384Z,36.60
2019-05-16T10:54:52.833Z,35.80
2019-05-16T10:57:10.991Z,36.30
2019-05-16T11:00:06.831Z,37.20
2019-05-16T11:02:11.689Z,37.40
2019-05-16T11:04:53.782Z,36.30
2019-05-16T11:07:12.194Z,37.40
2019-05-16T11:09:54.960Z,36.50
2019-05-16T11:12:13.143Z,37.60
2019-05-16T11:14:42.538Z,37.60
2019-05-16T11:17:13.609Z,38.00
2019-05-16T11:19:43.088Z,37.50
2019-05-16T11:22:12.555Z,38.30
2019-05-16T11:24:42.051Z,37.40
2019-05-16T11:27:11.507Z,37.30
2019-05-16T11:29:40.975Z,37.40
2019-05-16T11:32:10.368Z,37.90
2019-05-16T11:34:39.831Z,37.90
2019-05-16T11:37:09.310Z,37.60
2019-05-16T11:39:38.777Z,38.80
2019-05-16T11:42:08.362Z,38.40
2019-05-16T11:44:38.209Z,38.90
2019-05-16T11:47:08.923Z,38.30
2019-05-16T11:49:38.383Z,39.00
2019-05-16T11:52:07.785Z,38.10
2019-05-16T11:54:38.327Z,39.00
2019-05-16T11:57:07.805Z,37.80
2019-05-16T11:59:37.557Z,39.40
2019-05-16T12:02:07.066Z,39.10
2019-05-16T12:04:37.508Z,39.20
2019-05-16T12:07:07.705Z,38.30
2019-05-16T12:09:47.110Z,39.40
2019-05-16T12:12:08.849Z,38.80
2019-05-16T12:14:38.540Z,38.90
2019-05-16T12:17:07.948Z,39.20
2019-05-16T12:19:43.896Z,38.00
2019-05-16T12:22:09.704Z,38.50
2019-05-16T12:24:42.836Z,38.40
2019-05-16T12:27:12.352Z,38.90
2019-05-16T12:29:42.191Z,39.10
2019-05-16T12:32:11.649Z,38.80
2019-05-16T12:34:41.060Z,38.10
2019-05-16T12:37:10.525Z,38.90
2019-05-16T12:39:40.005Z,39.20
2019-05-16T12:42:09.456Z,39.30
2019-05-16T12:44:38.932Z,38.90
2019-05-16T12:47:08.332Z,38.50
2019-05-16T12:49:37.736Z,39.70
2019-05-16T12:52:07.252Z,38.30
2019-05-16T12:54:37.124Z,39.20
2019-05-16T12:57:06.749Z,38.40
2019-05-16T12:59:36.872Z,38.80
2019-05-16T13:02:07.174Z,38.30
2019-05-16T13:04:37.771Z,38.70
2019-05-16T13:07:09.359Z,38.70
2019-05-16T13:09:39.692Z,38.20
2019-05-16T13:12:09.156Z,38.90
2019-05-16T13:14:40.370Z,37.90
2019-05-16T13:17:09.650Z,38.20
2019-05-16T13:19:44.039Z,37.60
2019-05-16T13:22:10.297Z,39.20
2019-05-16T13:24:39.734Z,38.40
2019-05-16T13:27:09.274Z,38.20
2019-05-16T13:29:38.668Z,38.20
2019-05-16T13:32:08.148Z,38.40
2019-05-16T13:34:38.137Z,38.00
2019-05-16T13:37:07.875Z,37.60
2019-05-16T13:39:37.422Z,37.60
2019-05-16T13:42:08.045Z,38.70
2019-05-16T13:44:37.846Z,38.10
2019-05-16T13:47:07.840Z,38.00
2019-05-16T13:49:38.730Z,38.00
2019-05-16T13:52:08.513Z,37.90
2019-05-16T13:54:37.902Z,38.10
2019-05-16T13:57:07.312Z,38.50
2019-05-16T13:59:37.347Z,38.30
2019-05-16T14:02:08.075Z,38.30
2019-05-16T14:04:37.785Z,38.30
2019-05-16T14:07:07.787Z,39.30
2019-05-16T14:09:38.386Z,37.90
2019-05-16T14:12:07.832Z,38.10
2019-05-16T14:14:42.122Z,38.50
2019-05-16T14:17:13.657Z,38.00
2019-05-16T14:19:40.752Z,37.70
2019-05-16T14:22:10.213Z,38.00
2019-05-16T14:24:39.617Z,37.90
2019-05-16T14:27:09.070Z,38.50
2019-05-16T14:29:38.544Z,38.00
2019-05-16T14:32:10.316Z,38.10
2019-05-16T14:34:39.161Z,38.30
2019-05-16T14:37:09.588Z,37.90
2019-05-16T14:39:39.233Z,38.40
2019-05-16T14:42:08.895Z,38.00
2019-05-16T14:44:58.340Z,38.30
2019-05-16T14:47:09.386Z,37.80
2019-05-16T14:49:38.780Z,38.50
2019-05-16T14:52:08.206Z,38.20
2019-05-16T14:54:38.755Z,39.00
2019-05-16T14:57:08.245Z,38.70
2019-05-16T14:59:38.907Z,38.40
2019-05-16T15:02:08.371Z,38.60
2019-05-16T15:04:37.842Z,38.30
2019-05-16T15:07:07.233Z,38.50
2019-05-16T15:09:38.087Z,39.00
2019-05-16T15:12:07.718Z,39.00
2019-05-16T15:14:37.638Z,38.70
2019-05-16T15:17:08.255Z,39.10
2019-05-16T15:19:37.655Z,39.40
2019-05-16T15:22:07.816Z,38.80
2019-05-16T15:24:38.723Z,38.70
2019-05-16T15:27:08.573Z,38.70
2019-05-16T15:29:38.051Z,38.40
2019-05-16T15:32:08.599Z,38.50
2019-05-16T15:34:38.257Z,39.20
2019-05-16T15:37:08.172Z,39.50
2019-05-16T15:39:39.728Z,39.10
2019-05-16T15:42:09.264Z,39.10
2019-05-16T15:44:38.679Z,39.10
2019-05-16T15:47:08.407Z,38.80
2019-05-16T15:49:37.944Z,39.20
2019-05-16T15:52:07.506Z,39.40
2019-05-16T15:54:39.148Z,39.70
2019-05-16T15:57:08.625Z,38.80
2019-05-16T15:59:38.069Z,38.70
2019-05-16T16:02:07.573Z,38.90
2019-05-16T16:04:38.176Z,38.90
2019-05-16T16:07:07.963Z,38.70
2019-05-16T16:09:37.997Z,38.80
2019-05-16T16:12:10.584Z,39.60
2019-05-16T16:14:38.849Z,38.90
2019-05-16T16:17:08.622Z,39.20
2019-05-16T16:19:39.686Z,39.10
2019-05-16T16:22:09.580Z,39.50
2019-05-16T16:24:39.090Z,39.40
2019-05-16T16:27:22.803Z,39.60
2019-05-16T16:29:52.196Z,39.10
2019-05-16T16:32:21.660Z,39.50
2019-05-16T16:34:51.062Z,39.50
2019-05-16T16:37:20.534Z,39.90
2019-05-16T16:39:50.007Z,39.90
2019-05-16T16:42:19.417Z,40.30
2019-05-16T16:44:48.884Z,41.10
2019-05-16T16:47:19.376Z,40.50
2019-05-16T16:49:48.865Z,40.60
2019-05-16T16:52:18.328Z,40.70
2019-05-16T16:54:47.797Z,40.60
2019-05-16T16:57:17.811Z,40.60
2019-05-16T16:59:47.750Z,40.60
2019-05-16T17:02:17.400Z,40.60
2019-05-16T17:04:50.803Z,40.90
2019-05-16T17:07:18.037Z,40.60
2019-05-16T17:10:01.688Z,40.90
2019-05-16T17:12:31.116Z,40.60
2019-05-16T17:15:00.583Z,40.40
2019-05-16T17:17:49.396Z,40.90
2019-05-16T17:20:19.023Z,40.50
2019-05-16T17:22:48.535Z,40.30
2019-05-16T17:25:18.659Z,40.80
2019-05-16T17:27:48.117Z,41.30
2019-05-16T17:30:19.725Z,40.80
2019-05-16T17:32:49.137Z,40.70
2019-05-16T17:35:19.210Z,40.80
2019-05-16T17:37:49.129Z,40.80
2019-05-16T17:40:19.212Z,40.90
2019-05-16T17:42:48.719Z,41.10
2019-05-16T17:45:19.159Z,41.00
2019-05-16T17:47:48.559Z,40.90
2019-05-16T17:50:18.967Z,41.00
2019-05-16T17:52:48.367Z,40.80
2019-05-16T17:55:18.215Z,41.20
2019-05-16T17:57:47.768Z,41.20
2019-05-16T18:00:25.306Z,41.10
2019-05-16T18:02:50.027Z,41.20
2019-05-16T18:05:19.716Z,41.30
2019-05-16T18:07:49.180Z,41.20
2019-05-16T18:10:19.419Z,41.20
2019-05-16T18:12:48.879Z,41.50
2019-05-16T18:15:22.108Z,41.60
2019-05-16T18:17:51.557Z,41.50
2019-05-16T18:20:22.588Z,41.80
2019-05-16T18:22:52.091Z,41.80
2019-05-16T18:25:21.569Z,41.90
2019-05-16T18:27:50.959Z,41.80
2019-05-16T18:30:23.424Z,41.40
2019-05-16T18:32:52.875Z,42.00
2019-05-16T18:35:22.468Z,41.90
2019-05-16T18:37:51.878Z,41.70
2019-05-16T18:40:21.635Z,41.90
2019-05-16T18:42:51.158Z,41.90
2019-05-16T18:45:20.676Z,42.10
2019-05-16T18:47:50.059Z,42.20
2019-05-16T18:50:19.706Z,42.10
2019-05-16T18:52:49.155Z,42.30
2019-05-16T18:55:18.548Z,42.40
2019-05-16T18:57:47.928Z,42.60
2019-05-16T19:00:18.017Z,42.50
2019-05-16T19:02:48.004Z,42.40
2019-05-16T19:05:17.608Z,42.40
2019-05-16T19:07:47.542Z,42.50
2019-05-16T19:10:17.768Z,42.50
2019-05-16T19:12:47.779Z,42.80
2019-05-16T19:15:18.257Z,42.90
2019-05-16T19:17:51.436Z,42.70
2019-05-16T19:20:21.998Z,42.90
2019-05-16T19:22:51.860Z,43.10
2019-05-16T19:25:21.393Z,43.10
2019-05-16T19:27:50.915Z,43.10
2019-05-16T19:30:20.571Z,43.20
2019-05-16T19:32:50.015Z,43.20
2019-05-16T19:35:19.495Z,43.40
2019-05-16T19:37:48.979Z,43.60
2019-05-16T19:40:18.452Z,43.50
2019-05-16T19:42:47.932Z,44.30
2019-05-16T19:45:17.802Z,44.30
2019-05-16T19:47:48.290Z,44.00
2019-05-16T19:50:17.867Z,43.60
2019-05-16T19:52:47.348Z,43.60
2019-05-16T19:55:17.078Z,43.90
2019-05-16T19:57:46.719Z,43.50
2019-05-16T20:00:17.885Z,43.60
2019-05-16T20:02:47.426Z,43.30
2019-05-16T20:05:17.201Z,43.10
2019-05-16T20:07:46.750Z,43.20
2019-05-16T20:10:17.000Z,43.10
2019-05-16T20:12:46.711Z,43.40
2019-05-16T20:15:17.347Z,43.80
2019-05-16T20:17:57.086Z,44.00
2019-05-16T20:20:32.101Z,43.50
2019-05-16T20:23:01.653Z,43.90
2019-05-16T20:25:32.138Z,44.10
2019-05-16T20:28:01.550Z,44.00
2019-05-16T20:30:31.075Z,44.00
2019-05-16T20:33:00.513Z,44.20
2019-05-16T20:35:29.979Z,44.00
2019-05-16T20:37:59.386Z,44.60
2019-05-16T20:40:28.802Z,44.20
2019-05-16T20:42:59.490Z,44.30
2019-05-16T20:45:28.981Z,44.00
2019-05-16T20:48:08.088Z,44.20
2019-05-16T20:50:29.571Z,44.20
2019-05-16T20:52:59.043Z,44.10
2019-05-16T20:55:28.424Z,44.00
2019-05-16T20:57:57.912Z,44.00
2019-05-16T21:00:27.448Z,44.00
2019-05-16T21:02:57.446Z,44.60
2019-05-16T21:05:27.019Z,44.70
2019-05-16T21:07:57.048Z,44.70
2019-05-16T21:10:29.318Z,44.90
2019-05-16T21:12:58.783Z,45.10
2019-05-16T21:15:28.294Z,45.50
2019-05-16T21:17:57.834Z,45.60
2019-05-16T21:20:29.889Z,45.70
2019-05-16T21:22:58.396Z,45.70
2019-05-16T21:25:27.866Z,45.90
2019-05-16T21:27:57.469Z,46.90
2019-05-16T21:30:28.076Z,46.10
2019-05-16T21:32:57.543Z,46.20
2019-05-16T21:35:27.162Z,46.40
2019-05-16T21:37:57.697Z,47.10
2019-05-16T21:40:27.254Z,46.60
2019-05-16T21:42:58.822Z,46.70
2019-05-16T21:45:28.685Z,46.60
2019-05-16T21:47:58.536Z,46.60
2019-05-16T21:50:27.919Z,47.00
2019-05-16T21:52:57.355Z,47.00
2019-05-16T21:55:27.346Z,47.00
2019-05-16T21:57:57.954Z,47.10
2019-05-16T22:00:39.156Z,47.10
2019-05-16T22:03:09.667Z,47.30
2019-05-16T22:05:39.304Z,47.40
2019-05-16T22:08:11.690Z,47.60
2019-05-16T22:10:40.019Z,47.40
2019-05-16T22:13:11.115Z,47.60
2019-05-16T22:15:40.644Z,47.80
2019-05-16T22:18:11.727Z,47.70
2019-05-16T22:20:41.134Z,47.80
2019-05-16T22:23:10.577Z,47.80
2019-05-16T22:25:40.115Z,48.10
2019-05-16T22:28:09.688Z,48.00
2019-05-16T22:30:39.186Z,47.80
2019-05-16T22:33:09.310Z,47.90
2019-05-16T22:35:38.919Z,48.00
2019-05-16T22:38:08.299Z,48.10
2019-05-16T22:40:37.703Z,48.30
2019-05-16T22:43:10.174Z,48.20
2019-05-16T22:45:39.268Z,48.40
2019-05-16T22:48:08.942Z,48.60
2019-05-16T22:50:39.453Z,48.60
2019-05-16T22:53:08.852Z,48.60
2019-05-16T22:55:38.359Z,48.50
2019-05-16T22:58:07.809Z,48.50
2019-05-16T23:00:57.307Z,48.60
2019-05-16T23:03:27.127Z,48.60
2019-05-16T23:05:56.665Z,48.70
2019-05-16T23:08:27.224Z,48.70
2019-05-16T23:10:57.020Z,48.90
2019-05-16T23:13:26.704Z,48.70
2019-05-16T23:15:57.238Z,48.50
2019-05-16T23:18:26.934Z,48.50
2019-05-16T23:20:57.055Z,48.10
2019-05-16T23:23:26.735Z,47.50
2019-05-16T23:25:56.911Z,47.50
2019-05-16T23:28:28.275Z,47.00
2019-05-16T23:30:57.881Z,46.50
2019-05-16T23:33:27.357Z,46.60
2019-05-16T23:35:57.561Z,46.30
2019-05-16T23:38:27.729Z,47.50
2019-05-16T23:40:57.383Z,46.10
2019-05-16T23:43:26.859Z,46.40
2019-05-16T23:45:56.438Z,46.00
2019-05-16T23:48:25.967Z,46.40
2019-05-16T23:50:56.933Z,45.80
2019-05-16T23:53:28.091Z,46.10
2019-05-16T23:55:57.499Z,45.90
2019-05-16T23:58:26.894Z,46.20
